Corralitos, California
Current Conditions -  °F | °C
As of 7:07 PM on Saturday 25 Oct 2014 (Local Time) from KWVI Reporting Station
Broken Clouds Broken Clouds  
Wind Chill: 64°   Ceiling: 1700
Heat Index: 64°   Visibility: 10mi
Dew Point: 59°   Wind: 0mph
Humidity: 84%   Direction: NA
Pressure: 30.1"   Gusts: NA
Location:  36.9274°N, 121.747°W
Report Text: KWVI 260207Z AUTO 00000KT 10SM BKN017 BKN026 18/15 A3010 RMK AO2 T01780150
Loading
Personal Weather Stations






























Interactive Weather Map
Tropical Storm Tracking
New forecast layout! Learn more

10-Day Weather Forecast

Advertisements
Track Severe Weather on mobile